LCKA4: Locksburg, AR

Data processed at Fri May 26 2017 23:10


All information presented herein is the property of the government of the United States of America and may be revised or deleted at any time without prior notice.
Dissemination of this information without the expressed written consent of the Public Affairs Office, Tulsa District U.S. Army Corps of Engineers is strictly prohibited.
These data are gathered electronically and, as presented, have not undergone any form of quality control. These data are not guaranteed to be valid or correct.
Go to home page.
Go to station list.
Go to home page.

Upstream stations:

Downstream station:
Previous Day
Next Day
Current Day
    
SHEF ID:       LCKA4     Saline River near Lockesburg, AR
STATION TYPE:  

               PRECIP     STAGE  RIV-FLOW  BAT-LOAD
                   in        ft       cfs      volt
              Ccp-Rev   Ccp-Rev   Ccp-Rev   Ccp-Rev
(US/Central)
05/26 00:00      0.00      4.55       187     13.00
05/26 01:00      0.00      4.54       185     13.00
05/26 02:00      0.00      4.54       185     13.00
05/26 03:00      0.00      4.53       184     12.95
05/26 04:00      0.00      4.52       182     12.89
05/26 05:00      0.00      4.49       178     12.89
05/26 06:00      0.00      4.42       167     12.89
05/26 07:00      0.00      4.36       158     12.83
05/26 08:00      0.00      4.29       146     12.89
05/26 09:00      0.00      4.20       131     13.18
05/26 10:00      0.00      4.11       115     13.71
05/26 11:00      0.00      4.03       100     13.65
05/26 12:00      0.00      3.96        88     13.53
05/26 13:00      0.00      3.90        79     13.53
05/26 14:00      0.00      3.84        71     13.77
05/26 15:00      0.00      3.79        65     13.36
05/26 16:00      0.00      3.75        60     13.94
05/26 17:00      0.00      3.70        55     13.65
05/26 18:00      0.00      3.68        53     13.65
05/26 19:00      0.00      3.65        50     13.30
05/26 20:00      0.00      3.64        49     13.18
05/26 21:00      0.00      3.63        48     13.07
05/26 22:00      0.00      3.61        46     13.07
05/26 23:00      0.00      3.61        46     13.07